sensor_id;sensor_type;location;lat;lon;timestamp;temperature;humidity
21163;DHT22;10739;52.198;20.908;2023-08-08T00:00:58;15.30;99.90
21163;DHT22;10739;52.198;20.908;2023-08-08T00:03:25;15.30;99.90
21163;DHT22;10739;52.198;20.908;2023-08-08T00:05:51;15.30;99.90
21163;DHT22;10739;52.198;20.908;2023-08-08T00:08:17;15.30;99.90
21163;DHT22;10739;52.198;20.908;2023-08-08T00:10:43;15.30;99.90
21163;DHT22;10739;52.198;20.908;2023-08-08T00:13:10;15.20;99.90
21163;DHT22;10739;52.198;20.908;2023-08-08T00:15:36;15.20;99.90
21163;DHT22;10739;52.198;20.908;2023-08-08T00:18:02;15.20;99.90
21163;DHT22;10739;52.198;20.908;2023-08-08T00:20:29;15.20;99.90
21163;DHT22;10739;52.198;20.908;2023-08-08T00:22:55;15.10;99.90
21163;DHT22;10739;52.198;20.908;2023-08-08T00:25:21;15.10;99.90
21163;DHT22;10739;52.198;20.908;2023-08-08T00:27:47;15.20;99.90
21163;DHT22;10739;52.198;20.908;2023-08-08T00:30:15;15.10;99.90
21163;DHT22;10739;52.198;20.908;2023-08-08T00:32:42;15.10;99.90
21163;DHT22;10739;52.198;20.908;2023-08-08T00:35:08;15.10;99.90
21163;DHT22;10739;52.198;20.908;2023-08-08T00:37:34;15.10;99.90
21163;DHT22;10739;52.198;20.908;2023-08-08T00:40:01;15.00;99.90
21163;DHT22;10739;52.198;20.908;2023-08-08T00:42:27;15.00;99.90
21163;DHT22;10739;52.198;20.908;2023-08-08T00:44:53;15.00;99.90
21163;DHT22;10739;52.198;20.908;2023-08-08T00:47:19;14.90;99.90
21163;DHT22;10739;52.198;20.908;2023-08-08T00:49:46;14.90;99.90
21163;DHT22;10739;52.198;20.908;2023-08-08T00:52:14;14.90;99.90
21163;DHT22;10739;52.198;20.908;2023-08-08T00:54:40;14.90;99.90
21163;DHT22;10739;52.198;20.908;2023-08-08T00:57:06;14.90;99.90
21163;DHT22;10739;52.198;20.908;2023-08-08T00:59:33;14.80;99.90
21163;DHT22;10739;52.198;20.908;2023-08-08T01:01:59;14.80;99.90
21163;DHT22;10739;52.198;20.908;2023-08-08T01:04:26;14.80;99.90
21163;DHT22;10739;52.198;20.908;2023-08-08T01:07:09;14.80;99.90
21163;DHT22;10739;52.198;20.908;2023-08-08T01:12:18;14.70;99.90
21163;DHT22;10739;52.198;20.908;2023-08-08T01:14:46;14.70;99.90
21163;DHT22;10739;52.198;20.908;2023-08-08T01:17:12;14.70;99.90
21163;DHT22;10739;52.198;20.908;2023-08-08T01:19:40;14.70;99.90
21163;DHT22;10739;52.198;20.908;2023-08-08T01:22:12;14.60;99.90
21163;DHT22;10739;52.198;20.908;2023-08-08T01:24:46;14.50;99.90
21163;DHT22;10739;52.198;20.908;2023-08-08T01:27:12;14.50;99.90
21163;DHT22;10739;52.198;20.908;2023-08-08T01:29:38;14.50;99.90
21163;DHT22;10739;52.198;20.908;2023-08-08T01:32:05;14.50;99.90
21163;DHT22;10739;52.198;20.908;2023-08-08T01:34:32;14.40;99.90
21163;DHT22;10739;52.198;20.908;2023-08-08T01:37:20;14.40;99.90
21163;DHT22;10739;52.198;20.908;2023-08-08T01:39:57;14.40;99.90
21163;DHT22;10739;52.198;20.908;2023-08-08T01:42:28;14.40;99.90
21163;DHT22;10739;52.198;20.908;2023-08-08T01:44:56;14.30;99.90
21163;DHT22;10739;52.198;20.908;2023-08-08T01:47:24;14.30;99.90
21163;DHT22;10739;52.198;20.908;2023-08-08T01:49:50;14.30;99.90
21163;DHT22;10739;52.198;20.908;2023-08-08T01:52:18;14.30;99.90
21163;DHT22;10739;52.198;20.908;2023-08-08T01:54:44;14.30;99.90
21163;DHT22;10739;52.198;20.908;2023-08-08T01:57:11;14.30;99.90
21163;DHT22;10739;52.198;20.908;2023-08-08T01:59:37;14.30;99.90
21163;DHT22;10739;52.198;20.908;2023-08-08T02:02:04;14.30;99.90
21163;DHT22;10739;52.198;20.908;2023-08-08T02:04:30;14.20;99.90
21163;DHT22;10739;52.198;20.908;2023-08-08T02:06:56;14.20;99.90
21163;DHT22;10739;52.198;20.908;2023-08-08T02:09:22;14.20;99.90
21163;DHT22;10739;52.198;20.908;2023-08-08T02:11:48;14.20;99.90
21163;DHT22;10739;52.198;20.908;2023-08-08T02:14:14;14.10;99.90
21163;DHT22;10739;52.198;20.908;2023-08-08T02:16:41;14.10;99.90
21163;DHT22;10739;52.198;20.908;2023-08-08T02:19:08;14.10;99.90
21163;DHT22;10739;52.198;20.908;2023-08-08T02:21:34;14.10;99.90
21163;DHT22;10739;52.198;20.908;2023-08-08T02:24:00;14.10;99.90
21163;DHT22;10739;52.198;20.908;2023-08-08T02:26:26;14.10;99.90
21163;DHT22;10739;52.198;20.908;2023-08-08T02:28:53;14.00;99.90
21163;DHT22;10739;52.198;20.908;2023-08-08T02:31:19;14.00;99.90
21163;DHT22;10739;52.198;20.908;2023-08-08T02:33:50;14.00;99.90
21163;DHT22;10739;52.198;20.908;2023-08-08T02:36:17;14.00;99.90
21163;DHT22;10739;52.198;20.908;2023-08-08T02:38:44;13.90;99.90
21163;DHT22;10739;52.198;20.908;2023-08-08T02:41:11;13.90;99.90
21163;DHT22;10739;52.198;20.908;2023-08-08T02:43:36;13.80;99.90
21163;DHT22;10739;52.198;20.908;2023-08-08T02:46:03;13.80;99.90
21163;DHT22;10739;52.198;20.908;2023-08-08T02:48:29;13.80;99.90
21163;DHT22;10739;52.198;20.908;2023-08-08T02:50:56;13.80;99.90
21163;DHT22;10739;52.198;20.908;2023-08-08T02:53:22;13.80;99.90
21163;DHT22;10739;52.198;20.908;2023-08-08T02:55:48;13.70;99.90
21163;DHT22;10739;52.198;20.908;2023-08-08T02:58:15;13.70;99.90
21163;DHT22;10739;52.198;20.908;2023-08-08T03:00:41;13.70;99.90
21163;DHT22;10739;52.198;20.908;2023-08-08T03:03:07;13.70;99.90
21163;DHT22;10739;52.198;20.908;2023-08-08T03:05:34;13.70;99.90
21163;DHT22;10739;52.198;20.908;2023-08-08T03:08:01;13.60;99.90
21163;DHT22;10739;52.198;20.908;2023-08-08T03:10:27;13.60;99.90
21163;DHT22;10739;52.198;20.908;2023-08-08T03:12:53;13.60;99.90
21163;DHT22;10739;52.198;20.908;2023-08-08T03:15:19;13.50;99.90
21163;DHT22;10739;52.198;20.908;2023-08-08T03:17:45;13.50;99.90
21163;DHT22;10739;52.198;20.908;2023-08-08T03:20:12;13.50;99.90
21163;DHT22;10739;52.198;20.908;2023-08-08T03:22:38;13.40;99.90
21163;DHT22;10739;52.198;20.908;2023-08-08T03:25:06;13.40;99.90
21163;DHT22;10739;52.198;20.908;2023-08-08T03:27:33;13.40;99.90
21163;DHT22;10739;52.198;20.908;2023-08-08T03:30:01;13.40;99.90
21163;DHT22;10739;52.198;20.908;2023-08-08T03:32:28;13.40;99.90
21163;DHT22;10739;52.198;20.908;2023-08-08T03:34:54;13.40;99.90
21163;DHT22;10739;52.198;20.908;2023-08-08T03:37:21;13.40;99.90
21163;DHT22;10739;52.198;20.908;2023-08-08T03:39:47;13.40;99.90
21163;DHT22;10739;52.198;20.908;2023-08-08T03:42:13;13.30;99.90
21163;DHT22;10739;52.198;20.908;2023-08-08T03:44:39;13.30;99.90
21163;DHT22;10739;52.198;20.908;2023-08-08T03:47:05;13.30;99.90
21163;DHT22;10739;52.198;20.908;2023-08-08T03:49:32;13.30;99.90
21163;DHT22;10739;52.198;20.908;2023-08-08T03:51:58;13.30;99.90
21163;DHT22;10739;52.198;20.908;2023-08-08T03:54:24;13.30;99.90
21163;DHT22;10739;52.198;20.908;2023-08-08T03:56:50;13.30;99.90
21163;DHT22;10739;52.198;20.908;2023-08-08T03:59:16;13.30;99.90
21163;DHT22;10739;52.198;20.908;2023-08-08T04:01:42;13.30;99.90
21163;DHT22;10739;52.198;20.908;2023-08-08T04:04:08;13.40;99.90
21163;DHT22;10739;52.198;20.908;2023-08-08T04:06:34;13.40;99.90
21163;DHT22;10739;52.198;20.908;2023-08-08T04:09:00;13.50;99.90
21163;DHT22;10739;52.198;20.908;2023-08-08T04:11:26;13.50;99.90
21163;DHT22;10739;52.198;20.908;2023-08-08T04:13:52;13.50;99.90
21163;DHT22;10739;52.198;20.908;2023-08-08T04:16:18;13.50;99.90
21163;DHT22;10739;52.198;20.908;2023-08-08T04:18:45;13.60;99.90
21163;DHT22;10739;52.198;20.908;2023-08-08T04:21:11;13.50;99.90
21163;DHT22;10739;52.198;20.908;2023-08-08T04:23:37;13.50;99.90
21163;DHT22;10739;52.198;20.908;2023-08-08T04:26:03;13.50;99.90
21163;DHT22;10739;52.198;20.908;2023-08-08T04:28:29;13.60;99.90
21163;DHT22;10739;52.198;20.908;2023-08-08T04:30:55;13.60;99.90
21163;DHT22;10739;52.198;20.908;2023-08-08T04:33:21;13.60;99.90
21163;DHT22;10739;52.198;20.908;2023-08-08T04:35:47;13.70;99.90
21163;DHT22;10739;52.198;20.908;2023-08-08T04:38:14;13.70;99.90
21163;DHT22;10739;52.198;20.908;2023-08-08T04:40:43;13.80;99.90
21163;DHT22;10739;52.198;20.908;2023-08-08T04:43:09;13.80;99.90
21163;DHT22;10739;52.198;20.908;2023-08-08T04:45:35;13.90;99.90
21163;DHT22;10739;52.198;20.908;2023-08-08T04:48:01;13.90;99.90
21163;DHT22;10739;52.198;20.908;2023-08-08T04:50:27;13.90;99.90
21163;DHT22;10739;52.198;20.908;2023-08-08T04:52:54;13.90;99.90
21163;DHT22;10739;52.198;20.908;2023-08-08T04:55:20;14.00;99.90
21163;DHT22;10739;52.198;20.908;2023-08-08T04:57:46;14.10;99.90
21163;DHT22;10739;52.198;20.908;2023-08-08T05:00:13;14.20;99.90
21163;DHT22;10739;52.198;20.908;2023-08-08T05:02:39;14.30;99.90
21163;DHT22;10739;52.198;20.908;2023-08-08T05:05:07;14.40;99.90
21163;DHT22;10739;52.198;20.908;2023-08-08T05:07:33;14.50;99.90
21163;DHT22;10739;52.198;20.908;2023-08-08T05:10:02;14.50;99.90
21163;DHT22;10739;52.198;20.908;2023-08-08T05:12:28;14.50;99.90
21163;DHT22;10739;52.198;20.908;2023-08-08T05:14:54;14.60;99.90
21163;DHT22;10739;52.198;20.908;2023-08-08T05:17:20;14.60;99.90
21163;DHT22;10739;52.198;20.908;2023-08-08T05:19:47;14.70;99.90
21163;DHT22;10739;52.198;20.908;2023-08-08T05:22:12;14.60;99.90
21163;DHT22;10739;52.198;20.908;2023-08-08T05:24:38;14.70;99.90
21163;DHT22;10739;52.198;20.908;2023-08-08T05:27:05;14.90;99.90
21163;DHT22;10739;52.198;20.908;2023-08-08T05:29:31;15.00;99.90
21163;DHT22;10739;52.198;20.908;2023-08-08T05:31:57;15.00;99.90
21163;DHT22;10739;52.198;20.908;2023-08-08T05:34:24;15.10;99.90
21163;DHT22;10739;52.198;20.908;2023-08-08T05:36:50;15.20;99.90
21163;DHT22;10739;52.198;20.908;2023-08-08T05:39:16;15.10;99.90
21163;DHT22;10739;52.198;20.908;2023-08-08T05:41:42;15.10;99.90
21163;DHT22;10739;52.198;20.908;2023-08-08T05:44:08;14.90;99.90
21163;DHT22;10739;52.198;20.908;2023-08-08T05:46:34;14.90;99.90
21163;DHT22;10739;52.198;20.908;2023-08-08T05:49:00;14.90;99.90
21163;DHT22;10739;52.198;20.908;2023-08-08T05:51:27;15.00;99.90
21163;DHT22;10739;52.198;20.908;2023-08-08T05:53:53;15.00;99.90
21163;DHT22;10739;52.198;20.908;2023-08-08T05:56:19;14.90;99.90
21163;DHT22;10739;52.198;20.908;2023-08-08T05:58:45;15.00;99.90
21163;DHT22;10739;52.198;20.908;2023-08-08T06:01:11;15.10;99.90
21163;DHT22;10739;52.198;20.908;2023-08-08T06:03:38;15.10;99.90
21163;DHT22;10739;52.198;20.908;2023-08-08T06:06:04;15.20;99.90
21163;DHT22;10739;52.198;20.908;2023-08-08T06:08:30;15.20;99.90
21163;DHT22;10739;52.198;20.908;2023-08-08T06:10:57;15.20;99.90
21163;DHT22;10739;52.198;20.908;2023-08-08T06:13:24;15.30;99.90
21163;DHT22;10739;52.198;20.908;2023-08-08T06:15:50;15.40;99.90
21163;DHT22;10739;52.198;20.908;2023-08-08T06:18:16;15.50;99.90
21163;DHT22;10739;52.198;20.908;2023-08-08T06:20:43;15.50;99.90
21163;DHT22;10739;52.198;20.908;2023-08-08T06:23:09;15.40;99.90
21163;DHT22;10739;52.198;20.908;2023-08-08T06:25:36;15.30;99.90
21163;DHT22;10739;52.198;20.908;2023-08-08T06:28:04;15.20;99.90
21163;DHT22;10739;52.198;20.908;2023-08-08T06:30:32;15.20;99.90
21163;DHT22;10739;52.198;20.908;2023-08-08T06:32:58;15.20;99.90
21163;DHT22;10739;52.198;20.908;2023-08-08T06:35:24;15.30;99.90
21163;DHT22;10739;52.198;20.908;2023-08-08T06:37:50;15.30;99.90
21163;DHT22;10739;52.198;20.908;2023-08-08T06:40:16;15.40;99.90
21163;DHT22;10739;52.198;20.908;2023-08-08T06:42:43;15.50;99.90
21163;DHT22;10739;52.198;20.908;2023-08-08T06:45:09;15.40;99.90
21163;DHT22;10739;52.198;20.908;2023-08-08T06:47:35;15.40;99.90
21163;DHT22;10739;52.198;20.908;2023-08-08T06:50:02;15.40;99.90
21163;DHT22;10739;52.198;20.908;2023-08-08T06:52:29;15.50;99.90
21163;DHT22;10739;52.198;20.908;2023-08-08T06:54:55;15.50;99.90
21163;DHT22;10739;52.198;20.908;2023-08-08T06:57:21;15.70;99.90
21163;DHT22;10739;52.198;20.908;2023-08-08T06:59:47;15.90;99.90
21163;DHT22;10739;52.198;20.908;2023-08-08T07:02:17;16.00;99.90
21163;DHT22;10739;52.198;20.908;2023-08-08T07:04:44;16.10;99.90
21163;DHT22;10739;52.198;20.908;2023-08-08T07:07:10;16.10;99.90
21163;DHT22;10739;52.198;20.908;2023-08-08T07:09:36;16.20;99.90
21163;DHT22;10739;52.198;20.908;2023-08-08T07:12:04;16.30;99.90
21163;DHT22;10739;52.198;20.908;2023-08-08T07:14:30;16.40;99.90
21163;DHT22;10739;52.198;20.908;2023-08-08T07:16:56;16.60;99.90
21163;DHT22;10739;52.198;20.908;2023-08-08T07:19:22;16.70;99.90
21163;DHT22;10739;52.198;20.908;2023-08-08T07:21:48;16.40;99.90
21163;DHT22;10739;52.198;20.908;2023-08-08T07:24:14;16.50;99.90
21163;DHT22;10739;52.198;20.908;2023-08-08T07:26:40;16.40;99.90
21163;DHT22;10739;52.198;20.908;2023-08-08T07:29:06;16.50;99.90
21163;DHT22;10739;52.198;20.908;2023-08-08T07:31:33;16.70;99.90
21163;DHT22;10739;52.198;20.908;2023-08-08T07:33:59;16.80;99.90
21163;DHT22;10739;52.198;20.908;2023-08-08T07:36:25;16.60;99.90
21163;DHT22;10739;52.198;20.908;2023-08-08T07:38:51;16.60;99.90
21163;DHT22;10739;52.198;20.908;2023-08-08T07:41:18;16.60;99.90
21163;DHT22;10739;52.198;20.908;2023-08-08T07:43:44;16.60;99.90
21163;DHT22;10739;52.198;20.908;2023-08-08T07:46:10;16.60;99.90
21163;DHT22;10739;52.198;20.908;2023-08-08T07:48:36;16.60;99.90
21163;DHT22;10739;52.198;20.908;2023-08-08T07:51:02;16.60;99.90
21163;DHT22;10739;52.198;20.908;2023-08-08T07:53:29;17.00;99.90
21163;DHT22;10739;52.198;20.908;2023-08-08T07:55:55;17.20;99.90
21163;DHT22;10739;52.198;20.908;2023-08-08T07:58:21;17.20;99.90
21163;DHT22;10739;52.198;20.908;2023-08-08T08:00:51;17.40;99.90
21163;DHT22;10739;52.198;20.908;2023-08-08T08:03:19;17.40;99.90
21163;DHT22;10739;52.198;20.908;2023-08-08T08:05:46;17.40;99.90
21163;DHT22;10739;52.198;20.908;2023-08-08T08:08:12;17.20;99.90
21163;DHT22;10739;52.198;20.908;2023-08-08T08:10:38;17.00;99.90
21163;DHT22;10739;52.198;20.908;2023-08-08T08:13:05;17.30;99.90
21163;DHT22;10739;52.198;20.908;2023-08-08T08:15:32;17.60;99.90
21163;DHT22;10739;52.198;20.908;2023-08-08T08:17:58;17.80;99.90
21163;DHT22;10739;52.198;20.908;2023-08-08T08:20:24;18.00;99.90
21163;DHT22;10739;52.198;20.908;2023-08-08T08:22:50;17.90;99.90
21163;DHT22;10739;52.198;20.908;2023-08-08T08:25:16;17.80;99.90
21163;DHT22;10739;52.198;20.908;2023-08-08T08:27:42;17.70;99.90
21163;DHT22;10739;52.198;20.908;2023-08-08T08:30:09;17.60;99.90
21163;DHT22;10739;52.198;20.908;2023-08-08T08:32:36;17.50;99.90
21163;DHT22;10739;52.198;20.908;2023-08-08T08:35:04;17.40;99.90
21163;DHT22;10739;52.198;20.908;2023-08-08T08:37:32;17.50;99.90
21163;DHT22;10739;52.198;20.908;2023-08-08T08:40:00;17.40;99.90
21163;DHT22;10739;52.198;20.908;2023-08-08T08:42:28;17.70;99.90
21163;DHT22;10739;52.198;20.908;2023-08-08T08:44:57;17.70;99.90
21163;DHT22;10739;52.198;20.908;2023-08-08T08:47:25;17.80;99.90
21163;DHT22;10739;52.198;20.908;2023-08-08T08:49:55;17.80;99.90
21163;DHT22;10739;52.198;20.908;2023-08-08T08:52:23;18.00;99.90
21163;DHT22;10739;52.198;20.908;2023-08-08T08:54:53;18.20;99.90
21163;DHT22;10739;52.198;20.908;2023-08-08T08:57:21;18.40;99.90
21163;DHT22;10739;52.198;20.908;2023-08-08T08:59:50;18.60;99.90
21163;DHT22;10739;52.198;20.908;2023-08-08T09:02:18;18.60;98.90
21163;DHT22;10739;52.198;20.908;2023-08-08T09:04:45;18.80;99.50
21163;DHT22;10739;52.198;20.908;2023-08-08T09:07:12;18.90;99.10
21163;DHT22;10739;52.198;20.908;2023-08-08T09:09:42;18.80;99.50
21163;DHT22;10739;52.198;20.908;2023-08-08T09:12:09;18.80;99.20
21163;DHT22;10739;52.198;20.908;2023-08-08T09:14:40;18.90;99.60
21163;DHT22;10739;52.198;20.908;2023-08-08T09:17:13;18.80;99.60
21163;DHT22;10739;52.198;20.908;2023-08-08T09:19:43;18.70;99.60
21163;DHT22;10739;52.198;20.908;2023-08-08T09:22:18;19.20;98.70
21163;DHT22;10739;52.198;20.908;2023-08-08T09:24:46;19.00;98.80
21163;DHT22;10739;52.198;20.908;2023-08-08T09:27:13;18.80;98.50
21163;DHT22;10739;52.198;20.908;2023-08-08T09:29:44;19.10;99.30
21163;DHT22;10739;52.198;20.908;2023-08-08T09:32:12;19.90;97.10
21163;DHT22;10739;52.198;20.908;2023-08-08T09:34:44;20.30;95.40
21163;DHT22;10739;52.198;20.908;2023-08-08T09:37:11;19.60;95.20
21163;DHT22;10739;52.198;20.908;2023-08-08T09:39:37;19.10;95.80
21163;DHT22;10739;52.198;20.908;2023-08-08T09:42:04;18.80;96.40
21163;DHT22;10739;52.198;20.908;2023-08-08T09:44:31;18.60;97.00
21163;DHT22;10739;52.198;20.908;2023-08-08T09:47:01;18.50;97.50
21163;DHT22;10739;52.198;20.908;2023-08-08T09:49:27;18.50;97.30
21163;DHT22;10739;52.198;20.908;2023-08-08T09:51:55;18.50;98.10
21163;DHT22;10739;52.198;20.908;2023-08-08T09:54:22;18.30;97.30
21163;DHT22;10739;52.198;20.908;2023-08-08T09:56:50;18.40;97.30
21163;DHT22;10739;52.198;20.908;2023-08-08T09:59:17;18.50;98.20
21163;DHT22;10739;52.198;20.908;2023-08-08T10:01:44;18.50;97.90
21163;DHT22;10739;52.198;20.908;2023-08-08T10:04:12;18.50;96.70
21163;DHT22;10739;52.198;20.908;2023-08-08T10:06:39;18.50;97.50
21163;DHT22;10739;52.198;20.908;2023-08-08T10:09:05;18.50;97.10
21163;DHT22;10739;52.198;20.908;2023-08-08T10:11:32;18.60;97.00
21163;DHT22;10739;52.198;20.908;2023-08-08T10:14:02;18.90;97.00
21163;DHT22;10739;52.198;20.908;2023-08-08T10:16:32;19.00;96.50
21163;DHT22;10739;52.198;20.908;2023-08-08T10:19:01;18.70;96.10
21163;DHT22;10739;52.198;20.908;2023-08-08T10:21:36;18.50;96.50
21163;DHT22;10739;52.198;20.908;2023-08-08T10:24:08;18.40;96.90
21163;DHT22;10739;52.198;20.908;2023-08-08T10:26:56;18.80;96.30
21163;DHT22;10739;52.198;20.908;2023-08-08T10:29:26;20.30;94.70
21163;DHT22;10739;52.198;20.908;2023-08-08T10:34:39;20.90;91.70
21163;DHT22;10739;52.198;20.908;2023-08-08T10:37:11;20.20;91.70
21163;DHT22;10739;52.198;20.908;2023-08-08T10:39:52;20.00;92.00
21163;DHT22;10739;52.198;20.908;2023-08-08T10:42:20;21.40;91.10
21163;DHT22;10739;52.198;20.908;2023-08-08T10:44:55;21.10;88.40
21163;DHT22;10739;52.198;20.908;2023-08-08T10:47:33;20.20;90.50
21163;DHT22;10739;52.198;20.908;2023-08-08T10:50:09;19.60;91.20
21163;DHT22;10739;52.198;20.908;2023-08-08T10:52:51;19.10;92.20
21163;DHT22;10739;52.198;20.908;2023-08-08T10:55:24;19.20;93.00
21163;DHT22;10739;52.198;20.908;2023-08-08T10:57:58;20.50;91.50
21163;DHT22;10739;52.198;20.908;2023-08-08T11:00:32;21.30;90.50
21163;DHT22;10739;52.198;20.908;2023-08-08T11:03:03;22.40;88.50
21163;DHT22;10739;52.198;20.908;2023-08-08T11:05:33;22.80;89.10
21163;DHT22;10739;52.198;20.908;2023-08-08T11:08:02;22.10;85.30
21163;DHT22;10739;52.198;20.908;2023-08-08T11:10:35;21.00;87.90
21163;DHT22;10739;52.198;20.908;2023-08-08T11:13:04;20.50;88.40
21163;DHT22;10739;52.198;20.908;2023-08-08T11:15:33;20.10;88.20
21163;DHT22;10739;52.198;20.908;2023-08-08T11:18:00;19.90;88.90
21163;DHT22;10739;52.198;20.908;2023-08-08T11:20:32;20.60;88.60
21163;DHT22;10739;52.198;20.908;2023-08-08T11:22:59;21.90;85.50
21163;DHT22;10739;52.198;20.908;2023-08-08T11:25:29;22.10;82.40
21163;DHT22;10739;52.198;20.908;2023-08-08T11:27:57;21.40;83.40
21163;DHT22;10739;52.198;20.908;2023-08-08T11:30:27;20.80;82.60
21163;DHT22;10739;52.198;20.908;2023-08-08T11:32:54;20.80;82.50
21163;DHT22;10739;52.198;20.908;2023-08-08T11:35:25;21.10;81.60
21163;DHT22;10739;52.198;20.908;2023-08-08T11:37:53;21.10;82.80
21163;DHT22;10739;52.198;20.908;2023-08-08T11:40:23;21.50;81.80
21163;DHT22;10739;52.198;20.908;2023-08-08T11:42:51;21.20;81.20
21163;DHT22;10739;52.198;20.908;2023-08-08T11:45:19;20.60;82.40
21163;DHT22;10739;52.198;20.908;2023-08-08T11:47:49;21.20;81.50
21163;DHT22;10739;52.198;20.908;2023-08-08T11:50:21;22.30;81.50
21163;DHT22;10739;52.198;20.908;2023-08-08T11:52:51;23.70;78.10
21163;DHT22;10739;52.198;20.908;2023-08-08T11:55:19;24.60;76.40
21163;DHT22;10739;52.198;20.908;2023-08-08T11:57:50;24.90;73.50
21163;DHT22;10739;52.198;20.908;2023-08-08T12:00:16;25.50;72.10
21163;DHT22;10739;52.198;20.908;2023-08-08T12:02:44;25.20;73.60
21163;DHT22;10739;52.198;20.908;2023-08-08T12:05:14;25.00;71.40
21163;DHT22;10739;52.198;20.908;2023-08-08T12:07:48;23.80;71.40
21163;DHT22;10739;52.198;20.908;2023-08-08T12:10:17;22.50;72.60
21163;DHT22;10739;52.198;20.908;2023-08-08T12:12:54;21.60;75.60
21163;DHT22;10739;52.198;20.908;2023-08-08T12:15:22;22.30;75.60
21163;DHT22;10739;52.198;20.908;2023-08-08T12:17:49;22.50;74.00
21163;DHT22;10739;52.198;20.908;2023-08-08T12:20:15;22.00;76.10
21163;DHT22;10739;52.198;20.908;2023-08-08T12:22:42;21.50;74.90
21163;DHT22;10739;52.198;20.908;2023-08-08T12:25:09;21.20;74.70
21163;DHT22;10739;52.198;20.908;2023-08-08T12:27:35;20.60;76.60
21163;DHT22;10739;52.198;20.908;2023-08-08T12:30:05;20.30;77.60
21163;DHT22;10739;52.198;20.908;2023-08-08T12:32:32;20.20;78.30
21163;DHT22;10739;52.198;20.908;2023-08-08T12:34:59;21.00;78.40
21163;DHT22;10739;52.198;20.908;2023-08-08T12:37:25;22.30;77.50
21163;DHT22;10739;52.198;20.908;2023-08-08T12:39:51;23.10;75.00
21163;DHT22;10739;52.198;20.908;2023-08-08T12:42:18;22.60;73.60
21163;DHT22;10739;52.198;20.908;2023-08-08T12:44:44;21.90;74.30
21163;DHT22;10739;52.198;20.908;2023-08-08T12:47:12;21.80;75.90
21163;DHT22;10739;52.198;20.908;2023-08-08T12:49:39;22.40;73.40
21163;DHT22;10739;52.198;20.908;2023-08-08T12:52:05;23.40;73.30
21163;DHT22;10739;52.198;20.908;2023-08-08T12:54:31;23.90;69.00
21163;DHT22;10739;52.198;20.908;2023-08-08T12:56:57;23.90;67.60
21163;DHT22;10739;52.198;20.908;2023-08-08T12:59:23;24.00;68.50
21163;DHT22;10739;52.198;20.908;2023-08-08T13:01:49;24.40;70.60
21163;DHT22;10739;52.198;20.908;2023-08-08T13:04:16;23.40;68.90
21163;DHT22;10739;52.198;20.908;2023-08-08T13:06:42;23.00;71.70
21163;DHT22;10739;52.198;20.908;2023-08-08T13:09:08;22.20;72.00
21163;DHT22;10739;52.198;20.908;2023-08-08T13:11:34;22.00;74.20
21163;DHT22;10739;52.198;20.908;2023-08-08T13:14:00;21.60;71.10
21163;DHT22;10739;52.198;20.908;2023-08-08T13:16:27;21.20;72.40
21163;DHT22;10739;52.198;20.908;2023-08-08T13:18:53;21.00;74.80
21163;DHT22;10739;52.198;20.908;2023-08-08T13:21:19;20.70;74.80
21163;DHT22;10739;52.198;20.908;2023-08-08T13:23:45;20.50;75.90
21163;DHT22;10739;52.198;20.908;2023-08-08T13:26:11;20.20;76.90
21163;DHT22;10739;52.198;20.908;2023-08-08T13:28:37;20.00;78.30
21163;DHT22;10739;52.198;20.908;2023-08-08T13:31:05;19.90;78.10
21163;DHT22;10739;52.198;20.908;2023-08-08T13:33:34;19.60;78.10
21163;DHT22;10739;52.198;20.908;2023-08-08T13:36:01;19.40;80.80
21163;DHT22;10739;52.198;20.908;2023-08-08T13:38:27;19.00;85.10
21163;DHT22;10739;52.198;20.908;2023-08-08T13:40:53;18.50;87.20
21163;DHT22;10739;52.198;20.908;2023-08-08T13:43:20;18.40;88.30
21163;DHT22;10739;52.198;20.908;2023-08-08T13:45:47;18.40;89.10
21163;DHT22;10739;52.198;20.908;2023-08-08T13:48:13;18.30;90.00
21163;DHT22;10739;52.198;20.908;2023-08-08T13:50:39;18.30;89.60
21163;DHT22;10739;52.198;20.908;2023-08-08T13:53:05;18.40;91.10
21163;DHT22;10739;52.198;20.908;2023-08-08T13:55:31;18.30;90.30
21163;DHT22;10739;52.198;20.908;2023-08-08T13:58:07;18.30;90.30
21163;DHT22;10739;52.198;20.908;2023-08-08T14:00:34;18.60;90.10
21163;DHT22;10739;52.198;20.908;2023-08-08T14:03:02;19.00;89.80
21163;DHT22;10739;52.198;20.908;2023-08-08T14:05:28;19.30;87.40
21163;DHT22;10739;52.198;20.908;2023-08-08T14:07:56;19.70;88.80
21163;DHT22;10739;52.198;20.908;2023-08-08T14:10:22;20.30;85.40
21163;DHT22;10739;52.198;20.908;2023-08-08T14:12:48;20.50;86.60
21163;DHT22;10739;52.198;20.908;2023-08-08T14:15:15;20.50;84.20
21163;DHT22;10739;52.198;20.908;2023-08-08T14:17:41;20.50;85.10
21163;DHT22;10739;52.198;20.908;2023-08-08T14:20:07;20.50;85.10
21163;DHT22;10739;52.198;20.908;2023-08-08T14:22:34;20.80;85.00
21163;DHT22;10739;52.198;20.908;2023-08-08T14:25:09;20.60;84.40
21163;DHT22;10739;52.198;20.908;2023-08-08T14:27:36;21.00;83.70
21163;DHT22;10739;52.198;20.908;2023-08-08T14:30:03;22.20;80.20
21163;DHT22;10739;52.198;20.908;2023-08-08T14:32:30;22.50;81.90
21163;DHT22;10739;52.198;20.908;2023-08-08T14:35:01;23.80;78.30
21163;DHT22;10739;52.198;20.908;2023-08-08T14:37:28;24.40;73.30
21163;DHT22;10739;52.198;20.908;2023-08-08T14:39:55;25.00;73.00
21163;DHT22;10739;52.198;20.908;2023-08-08T14:42:22;25.30;71.40
21163;DHT22;10739;52.198;20.908;2023-08-08T14:44:49;25.70;72.60
21163;DHT22;10739;52.198;20.908;2023-08-08T14:47:15;25.20;70.10
21163;DHT22;10739;52.198;20.908;2023-08-08T14:49:41;25.30;70.10
21163;DHT22;10739;52.198;20.908;2023-08-08T14:52:07;25.50;69.10
21163;DHT22;10739;52.198;20.908;2023-08-08T14:54:37;25.20;70.30
21163;DHT22;10739;52.198;20.908;2023-08-08T14:57:03;23.70;71.90
21163;DHT22;10739;52.198;20.908;2023-08-08T14:59:29;23.00;74.10
21163;DHT22;10739;52.198;20.908;2023-08-08T15:01:55;22.20;74.80
21163;DHT22;10739;52.198;20.908;2023-08-08T15:04:21;21.80;75.60
21163;DHT22;10739;52.198;20.908;2023-08-08T15:06:48;21.70;77.80
21163;DHT22;10739;52.198;20.908;2023-08-08T15:09:14;21.50;76.50
21163;DHT22;10739;52.198;20.908;2023-08-08T15:11:40;21.60;76.00
21163;DHT22;10739;52.198;20.908;2023-08-08T15:14:06;21.70;75.80
21163;DHT22;10739;52.198;20.908;2023-08-08T15:16:33;21.70;75.10
21163;DHT22;10739;52.198;20.908;2023-08-08T15:18:59;21.60;74.10
21163;DHT22;10739;52.198;20.908;2023-08-08T15:21:27;21.40;76.30